createdAt,value
2022-07-26T00:01:58.998Z,21.30
2022-07-26T00:04:28.694Z,21.20
2022-07-26T00:06:56.655Z,21.20
2022-07-26T00:09:24.438Z,21.50
2022-07-26T00:11:52.476Z,21.60
2022-07-26T00:14:20.301Z,21.50
2022-07-26T00:16:48.284Z,21.30
2022-07-26T00:19:16.225Z,21.20
2022-07-26T00:21:45.422Z,21.20
2022-07-26T00:24:13.264Z,21.00
2022-07-26T00:26:41.014Z,21.00
2022-07-26T00:29:09.032Z,21.00
2022-07-26T00:31:37.181Z,21.00
2022-07-26T00:34:05.004Z,21.00
2022-07-26T00:36:32.778Z,21.20
2022-07-26T00:39:01.882Z,21.00
2022-07-26T00:41:29.619Z,20.80
2022-07-26T00:43:59.039Z,20.80
2022-07-26T00:46:27.618Z,20.80
2022-07-26T00:48:55.661Z,20.90
2022-07-26T00:51:23.642Z,21.30
2022-07-26T00:53:51.806Z,21.10
2022-07-26T00:56:21.581Z,20.90
2022-07-26T00:58:49.389Z,21.30
2022-07-26T01:01:17.252Z,21.50
2022-07-26T01:03:45.732Z,21.50
2022-07-26T01:06:13.567Z,21.20
2022-07-26T01:08:41.420Z,20.80
2022-07-26T01:11:09.239Z,20.70
2022-07-26T01:13:38.325Z,20.70
2022-07-26T01:16:06.542Z,20.50
2022-07-26T01:18:34.283Z,20.80
2022-07-26T01:21:13.343Z,20.70
2022-07-26T01:23:43.817Z,20.80
2022-07-26T01:26:11.976Z,21.00
2022-07-26T01:28:41.929Z,21.10
2022-07-26T01:31:10.118Z,20.80
2022-07-26T01:33:37.964Z,20.90
2022-07-26T01:36:06.338Z,20.90
2022-07-26T01:38:34.183Z,21.10
2022-07-26T01:41:03.303Z,20.80
2022-07-26T01:43:31.190Z,20.60
2022-07-26T01:45:59.060Z,20.60
2022-07-26T01:48:26.980Z,20.70
2022-07-26T01:50:54.807Z,20.70
2022-07-26T01:53:22.595Z,20.60
2022-07-26T01:55:50.348Z,20.50
2022-07-26T01:58:19.495Z,20.90
2022-07-26T02:00:47.311Z,20.80
2022-07-26T02:03:15.204Z,21.10
2022-07-26T02:05:42.997Z,21.60
2022-07-26T02:08:11.601Z,21.70
2022-07-26T02:10:58.443Z,21.70
2022-07-26T02:13:27.682Z,21.60
2022-07-26T02:15:55.556Z,21.30
2022-07-26T02:18:23.383Z,21.70
2022-07-26T02:20:51.137Z,21.70
2022-07-26T02:23:19.253Z,21.90
2022-07-26T02:25:47.726Z,21.70
2022-07-26T02:28:15.713Z,22.00
2022-07-26T02:30:45.973Z,22.10
2022-07-26T02:33:14.167Z,21.80
2022-07-26T02:35:42.130Z,21.80
2022-07-26T02:38:12.197Z,21.60
2022-07-26T02:40:41.650Z,21.60
2022-07-26T02:43:10.982Z,21.90
2022-07-26T02:45:38.908Z,21.80
2022-07-26T02:48:09.393Z,21.20
2022-07-26T02:50:37.136Z,21.40
2022-07-26T02:53:04.949Z,21.20
2022-07-26T02:55:32.714Z,21.40
2022-07-26T02:58:00.511Z,21.50
2022-07-26T03:00:28.778Z,21.30
2022-07-26T03:02:56.587Z,21.00
2022-07-26T03:05:25.749Z,20.50
2022-07-26T03:07:53.814Z,20.30
2022-07-26T03:10:21.569Z,20.20
2022-07-26T03:12:49.321Z,20.10
2022-07-26T03:15:17.124Z,20.10
2022-07-26T03:17:44.855Z,19.90
2022-07-26T03:20:13.745Z,19.70
2022-07-26T03:22:43.464Z,19.60
2022-07-26T03:25:11.273Z,19.50
2022-07-26T03:27:39.094Z,19.40
2022-07-26T03:30:08.290Z,19.50
2022-07-26T03:32:36.301Z,19.80
2022-07-26T03:35:04.392Z,19.60
2022-07-26T03:37:45.126Z,19.40
2022-07-26T03:40:16.598Z,19.50
2022-07-26T03:42:45.927Z,19.60
2022-07-26T03:45:14.222Z,19.80
2022-07-26T03:47:42.181Z,19.90
2022-07-26T03:50:10.894Z,19.80
2022-07-26T03:52:38.746Z,19.70
2022-07-26T03:55:27.379Z,19.70
2022-07-26T03:57:55.627Z,19.60
2022-07-26T04:00:23.439Z,19.70
2022-07-26T04:02:51.310Z,19.50
2022-07-26T04:05:21.762Z,19.60
2022-07-26T04:07:53.129Z,19.50
2022-07-26T04:10:22.051Z,19.70
2022-07-26T04:12:49.856Z,19.60
2022-07-26T04:15:20.896Z,19.50
2022-07-26T04:17:49.174Z,19.60
2022-07-26T04:20:17.233Z,19.90
2022-07-26T04:22:45.872Z,19.90
2022-07-26T04:25:13.783Z,20.00
2022-07-26T04:27:41.626Z,20.00
2022-07-26T04:30:14.703Z,20.00
2022-07-26T04:32:46.513Z,19.90
2022-07-26T04:35:15.222Z,19.90
2022-07-26T04:37:44.676Z,20.10
2022-07-26T04:40:16.734Z,20.00
2022-07-26T04:42:44.637Z,19.70
2022-07-26T04:45:13.733Z,20.10
2022-07-26T04:47:44.097Z,20.00
2022-07-26T04:50:12.626Z,19.80
2022-07-26T04:52:41.034Z,19.50
2022-07-26T04:55:10.504Z,19.50
2022-07-26T04:57:38.490Z,19.60
2022-07-26T05:00:24.320Z,19.40
2022-07-26T05:02:55.012Z,19.70
2022-07-26T05:05:23.972Z,19.80
2022-07-26T05:07:53.540Z,19.50
2022-07-26T05:10:22.591Z,19.40
2022-07-26T05:12:50.959Z,19.60
2022-07-26T05:15:18.695Z,19.70
2022-07-26T05:17:46.670Z,19.90
2022-07-26T05:20:17.846Z,20.00
2022-07-26T05:22:46.007Z,20.20
2022-07-26T05:25:13.820Z,20.10
2022-07-26T05:27:41.955Z,20.30
2022-07-26T05:30:11.498Z,20.30
2022-07-26T05:32:39.419Z,20.40
2022-07-26T05:35:08.669Z,20.30
2022-07-26T05:37:38.278Z,20.50
2022-07-26T05:40:07.508Z,20.60
2022-07-26T05:42:35.275Z,20.40
2022-07-26T05:45:03.133Z,20.30
2022-07-26T05:47:31.018Z,20.60
2022-07-26T05:49:59.132Z,20.40
2022-07-26T05:52:27.043Z,20.30
2022-07-26T05:54:56.260Z,19.90
2022-07-26T05:57:24.161Z,19.80
2022-07-26T05:59:51.905Z,19.70
2022-07-26T06:02:19.794Z,19.60
2022-07-26T06:04:47.821Z,19.70
2022-07-26T06:07:15.759Z,19.80
2022-07-26T06:09:43.666Z,20.00
2022-07-26T06:12:12.868Z,20.00
2022-07-26T06:14:40.638Z,20.10
2022-07-26T06:17:08.667Z,20.40
2022-07-26T06:19:36.740Z,20.60
2022-07-26T06:22:04.591Z,21.10
2022-07-26T06:24:32.678Z,21.00
2022-07-26T06:27:05.048Z,20.70
2022-07-26T06:29:34.637Z,20.60
2022-07-26T06:32:02.490Z,20.60
2022-07-26T06:34:30.445Z,20.30
2022-07-26T06:36:58.210Z,20.20
2022-07-26T06:39:25.969Z,20.20
2022-07-26T06:41:53.734Z,20.30
2022-07-26T06:44:22.550Z,20.50
2022-07-26T06:46:51.769Z,20.20
2022-07-26T06:49:22.767Z,20.30
2022-07-26T06:51:51.188Z,20.80
2022-07-26T06:54:18.970Z,20.80
2022-07-26T06:56:46.747Z,20.90
2022-07-26T06:59:14.534Z,20.60
2022-07-26T07:01:58.244Z,20.60
2022-07-26T07:04:29.592Z,20.30
2022-07-26T07:07:02.243Z,20.20
2022-07-26T07:09:34.114Z,20.40
2022-07-26T07:12:09.472Z,20.60
2022-07-26T07:14:38.922Z,20.50
2022-07-26T07:17:11.174Z,20.60
2022-07-26T07:19:43.139Z,20.70
2022-07-26T07:22:12.281Z,20.60
2022-07-26T07:24:40.995Z,20.90
2022-07-26T07:27:09.297Z,21.20
2022-07-26T07:29:38.810Z,20.90
2022-07-26T07:32:17.999Z,21.60
2022-07-26T07:34:48.602Z,22.20
2022-07-26T07:37:16.582Z,23.00
2022-07-26T07:39:44.436Z,23.70
2022-07-26T07:42:18.734Z,23.40
2022-07-26T07:44:46.510Z,22.90
2022-07-26T07:47:15.110Z,21.60
2022-07-26T07:49:42.925Z,21.80
2022-07-26T07:52:12.077Z,22.20
2022-07-26T07:54:39.918Z,22.90
2022-07-26T07:57:10.330Z,22.80
2022-07-26T07:59:39.161Z,22.70
2022-07-26T08:02:07.664Z,22.10
2022-07-26T08:04:35.545Z,21.50
2022-07-26T08:07:03.429Z,21.90
2022-07-26T08:09:33.745Z,23.10
2022-07-26T08:12:01.895Z,23.60
2022-07-26T08:14:29.958Z,23.40
2022-07-26T09:37:37.385Z,24.70
2022-07-26T09:42:33.108Z,24.10
2022-07-26T09:45:00.943Z,23.70
2022-07-26T09:47:37.266Z,23.00
2022-07-26T09:50:14.217Z,23.10
2022-07-26T09:53:01.865Z,24.30
2022-07-26T09:55:40.961Z,24.90
2022-07-26T09:58:13.878Z,25.30
2022-07-26T10:00:41.908Z,24.40
2022-07-26T10:03:09.927Z,24.00
2022-07-26T10:05:37.934Z,24.10
2022-07-26T10:08:08.032Z,24.00
2022-07-26T10:10:40.843Z,24.40
2022-07-26T10:13:09.596Z,23.90
2022-07-26T10:15:40.321Z,24.10
2022-07-26T10:18:09.458Z,24.00
2022-07-26T10:20:51.254Z,24.30
2022-07-26T10:23:40.651Z,25.20
2022-07-26T10:26:11.050Z,24.60
2022-07-26T10:28:41.118Z,24.60
2022-07-26T10:31:26.207Z,24.90
2022-07-26T10:33:55.647Z,25.30
2022-07-26T10:36:29.116Z,25.00
2022-07-26T10:39:16.901Z,25.60
2022-07-26T10:41:46.769Z,26.20
2022-07-26T10:44:20.131Z,26.10
2022-07-26T10:46:59.608Z,25.20
2022-07-26T10:49:32.877Z,25.30
2022-07-26T10:52:08.224Z,25.70
2022-07-26T10:55:14.493Z,25.60
2022-07-26T10:57:47.606Z,25.50
2022-07-26T11:00:21.481Z,26.30
2022-07-26T11:02:53.443Z,26.70
2022-07-26T11:05:23.044Z,25.80
2022-07-26T11:08:01.426Z,25.70
2022-07-26T11:10:32.720Z,25.10
2022-07-26T11:13:16.480Z,24.30
2022-07-26T11:15:46.366Z,25.30
2022-07-26T11:18:17.625Z,26.50
2022-07-26T11:20:46.783Z,26.40
2022-07-26T11:23:22.719Z,25.80
2022-07-26T11:26:18.700Z,25.40
2022-07-26T11:28:59.627Z,25.40
2022-07-26T11:31:51.357Z,24.30
2022-07-26T11:34:26.098Z,24.10
2022-07-26T11:36:56.256Z,25.10
2022-07-26T11:39:26.157Z,25.30
2022-07-26T11:41:58.966Z,25.90
2022-07-26T11:44:29.083Z,26.00
2022-07-26T11:46:57.885Z,24.80
2022-07-26T11:49:51.622Z,24.80
2022-07-26T11:52:16.113Z,24.20
2022-07-26T11:54:54.023Z,23.50
2022-07-26T11:57:22.110Z,23.90
2022-07-26T11:59:51.553Z,24.50
2022-07-26T12:02:22.233Z,25.00
2022-07-26T12:04:50.427Z,25.70
2022-07-26T12:07:21.391Z,25.40
2022-07-26T12:09:50.712Z,24.60
2022-07-26T12:12:23.841Z,24.70
2022-07-26T12:15:00.858Z,24.10
2022-07-26T12:17:35.344Z,23.30
2022-07-26T12:20:12.426Z,24.10
2022-07-26T12:22:40.404Z,24.40
2022-07-26T12:25:09.130Z,24.60
2022-07-26T12:27:46.844Z,25.50
2022-07-26T12:30:17.603Z,25.50
2022-07-26T12:32:48.561Z,26.30
2022-07-26T12:35:25.133Z,26.10
2022-07-26T12:37:53.594Z,26.30
2022-07-26T12:40:23.256Z,25.90
2022-07-26T12:43:01.297Z,24.80
2022-07-26T12:45:33.482Z,25.00
2022-07-26T12:48:03.305Z,24.90
2022-07-26T12:50:32.766Z,24.70
2022-07-26T12:53:02.521Z,25.20
2022-07-26T12:55:30.441Z,25.40
2022-07-26T12:57:58.345Z,25.10
2022-07-26T13:00:26.235Z,25.20
2022-07-26T13:02:57.904Z,25.90
2022-07-26T13:05:26.254Z,26.20
2022-07-26T13:07:55.446Z,26.10
2022-07-26T13:10:33.695Z,26.10
2022-07-26T13:13:02.719Z,26.40
2022-07-26T13:15:36.211Z,26.40
2022-07-26T13:18:08.229Z,25.60
2022-07-26T13:20:38.134Z,25.30
2022-07-26T13:23:09.619Z,24.50
2022-07-26T13:25:40.406Z,24.60
2022-07-26T13:28:09.104Z,25.30
2022-07-26T13:30:38.327Z,25.50
2022-07-26T13:33:07.931Z,25.80
2022-07-26T13:35:36.079Z,25.10
2022-07-26T13:38:03.894Z,24.90
2022-07-26T13:40:32.187Z,24.80
2022-07-26T13:43:00.149Z,25.50
2022-07-26T13:45:29.000Z,25.80
2022-07-26T13:47:59.111Z,25.70
2022-07-26T13:50:28.741Z,26.10
2022-07-26T13:52:57.128Z,26.60
2022-07-26T13:55:26.012Z,26.70
2022-07-26T13:57:56.911Z,26.60
2022-07-26T14:00:25.821Z,26.40
2022-07-26T14:02:53.722Z,26.10
2022-07-26T14:05:21.721Z,25.80
2022-07-26T14:07:50.931Z,25.50
2022-07-26T14:10:18.956Z,25.10
2022-07-26T14:12:47.764Z,25.20
2022-07-26T14:15:21.684Z,25.60
2022-07-26T14:17:50.587Z,25.50
2022-07-26T14:20:18.438Z,25.20
2022-07-26T14:22:46.381Z,24.90
2022-07-26T14:25:15.527Z,24.60
2022-07-26T14:27:43.330Z,24.70
2022-07-26T14:30:12.096Z,25.40
2022-07-26T14:32:39.920Z,26.10
2022-07-26T14:35:08.949Z,26.20
2022-07-26T14:37:43.040Z,25.30
2022-07-26T14:40:16.547Z,25.30
2022-07-26T14:42:45.797Z,25.60
2022-07-26T14:45:14.631Z,25.50
2022-07-26T14:47:42.820Z,25.50
2022-07-26T14:50:12.068Z,25.70
2022-07-26T14:52:40.592Z,25.50
2022-07-26T14:55:09.270Z,25.00
2022-07-26T14:57:39.964Z,24.80
2022-07-26T15:00:10.089Z,24.90
2022-07-26T15:02:40.729Z,24.90
2022-07-26T15:05:09.328Z,24.80
2022-07-26T15:07:37.475Z,25.00
2022-07-26T15:10:06.390Z,25.10
2022-07-26T15:12:34.469Z,25.40
2022-07-26T15:15:03.653Z,25.80
2022-07-26T15:17:31.468Z,25.80
2022-07-26T15:19:59.345Z,25.60
2022-07-26T15:22:27.496Z,25.60
2022-07-26T15:24:55.291Z,25.00
2022-07-26T15:27:23.149Z,24.80
2022-07-26T15:29:51.158Z,24.80
2022-07-26T15:32:21.494Z,25.10
2022-07-26T15:34:49.471Z,25.20
2022-07-26T15:37:17.506Z,25.50
2022-07-26T15:39:45.538Z,25.30
2022-07-26T15:42:14.949Z,25.10
2022-07-26T15:44:43.430Z,24.50
2022-07-26T15:47:12.076Z,24.40
2022-07-26T15:49:41.314Z,24.50
2022-07-26T15:52:11.447Z,24.60
2022-07-26T15:54:39.433Z,24.50
2022-07-26T15:57:07.314Z,24.50
2022-07-26T15:59:35.168Z,24.70
2022-07-26T16:02:03.237Z,24.80
2022-07-26T16:04:31.152Z,24.50
2022-07-26T16:07:00.299Z,24.60
2022-07-26T16:09:28.139Z,24.60
2022-07-26T16:11:55.953Z,24.50
2022-07-26T16:14:23.795Z,24.50
2022-07-26T16:16:51.743Z,24.40
2022-07-26T16:19:19.574Z,24.30
2022-07-26T16:21:47.374Z,24.60
2022-07-26T16:24:16.551Z,24.60
2022-07-26T16:26:44.621Z,24.70
2022-07-26T16:29:15.700Z,24.60
2022-07-26T16:31:43.712Z,25.20
2022-07-26T16:34:12.242Z,25.30
2022-07-26T16:36:40.051Z,25.50
2022-07-26T16:39:08.203Z,25.50
2022-07-26T16:41:38.043Z,25.10
2022-07-26T16:44:06.523Z,24.90
2022-07-26T16:46:34.431Z,24.50
2022-07-26T16:49:02.442Z,24.30
2022-07-26T16:51:32.726Z,24.20
2022-07-26T16:54:00.548Z,24.10
2022-07-26T16:56:28.348Z,24.00
2022-07-26T16:58:57.491Z,23.90
2022-07-26T17:01:25.337Z,23.80
2022-07-26T17:03:53.342Z,23.70
2022-07-26T17:06:21.162Z,23.70
2022-07-26T17:08:48.942Z,23.90
2022-07-26T17:11:16.811Z,24.10
2022-07-26T17:13:44.630Z,24.40
2022-07-26T17:16:13.893Z,24.40
2022-07-26T17:18:41.880Z,24.60
2022-07-26T17:21:09.689Z,24.30
2022-07-26T17:23:38.558Z,24.50
2022-07-26T17:26:06.366Z,24.10
2022-07-26T17:28:34.198Z,24.00
2022-07-26T17:31:01.989Z,23.70
2022-07-26T17:33:31.278Z,23.80
2022-07-26T17:36:03.315Z,24.00
2022-07-26T17:38:34.852Z,24.00
2022-07-26T17:41:02.611Z,24.10
2022-07-26T17:43:36.818Z,24.00
2022-07-26T17:46:05.104Z,23.90
2022-07-26T17:48:34.549Z,23.90
2022-07-26T17:51:02.385Z,23.70
2022-07-26T17:53:34.349Z,23.70
2022-07-26T17:56:02.649Z,23.60
2022-07-26T17:58:30.543Z,23.40
2022-07-26T18:00:58.355Z,23.40
2022-07-26T18:03:26.171Z,23.20
2022-07-26T18:05:55.324Z,23.00
2022-07-26T18:08:29.994Z,22.90
2022-07-26T18:10:58.710Z,22.90
2022-07-26T18:13:27.112Z,23.00
2022-07-26T18:15:55.077Z,22.80
2022-07-26T18:18:22.966Z,22.70
2022-07-26T18:20:50.855Z,22.50
2022-07-26T18:23:20.137Z,22.40
2022-07-26T18:25:47.937Z,22.40
2022-07-26T18:28:16.382Z,22.40
2022-07-26T18:30:44.779Z,22.40
2022-07-26T18:33:14.350Z,22.40
2022-07-26T18:35:42.444Z,22.30
2022-07-26T18:38:10.347Z,22.30
2022-07-26T18:40:39.507Z,22.20
2022-07-26T18:43:07.448Z,22.10
2022-07-26T18:45:35.484Z,22.10
2022-07-26T18:48:03.327Z,21.90
2022-07-26T18:50:32.292Z,21.80
2022-07-26T18:53:00.614Z,21.90
2022-07-26T18:55:28.888Z,21.90
2022-07-26T18:58:00.869Z,21.80
2022-07-26T19:00:31.204Z,21.70
2022-07-26T19:02:59.030Z,21.60
2022-07-26T19:05:26.852Z,21.50
2022-07-26T19:08:03.127Z,21.50
2022-07-26T19:10:31.050Z,21.40
2022-07-26T19:13:00.229Z,21.30
2022-07-26T19:15:29.626Z,21.20
2022-07-26T19:17:57.642Z,21.00
2022-07-26T19:20:25.564Z,21.00
2022-07-26T19:22:53.388Z,20.90
2022-07-26T19:25:21.189Z,20.80
2022-07-26T19:27:48.982Z,20.60
2022-07-26T19:30:18.129Z,20.30
2022-07-26T19:32:45.897Z,19.90
2022-07-26T19:35:14.252Z,19.70
2022-07-26T19:37:42.075Z,19.60
2022-07-26T19:40:10.955Z,19.50
2022-07-26T19:42:38.923Z,19.40
2022-07-26T19:45:07.360Z,19.40
2022-07-26T19:47:37.375Z,19.40
2022-07-26T19:50:06.901Z,19.40
2022-07-26T19:52:34.858Z,19.50
2022-07-26T19:55:02.811Z,19.40
2022-07-26T19:57:30.709Z,19.30
2022-07-26T20:00:00.443Z,19.50
2022-07-26T20:02:28.318Z,19.60
2022-07-26T20:04:58.186Z,19.90
2022-07-26T20:07:26.196Z,20.10
2022-07-26T20:09:54.086Z,20.30
2022-07-26T20:12:22.294Z,19.90
2022-07-26T20:14:50.150Z,19.70
2022-07-26T20:17:18.472Z,19.70
2022-07-26T20:19:46.860Z,19.40
2022-07-26T20:22:16.076Z,19.40
2022-07-26T20:24:43.857Z,19.50
2022-07-26T20:27:11.689Z,19.50
2022-07-26T20:29:39.558Z,19.60
2022-07-26T20:32:07.721Z,19.50
2022-07-26T20:34:35.942Z,19.30
2022-07-26T20:37:03.749Z,19.30
2022-07-26T20:39:33.902Z,19.50
2022-07-26T20:42:01.804Z,19.60
2022-07-26T20:44:29.626Z,19.90
2022-07-26T20:46:57.562Z,19.70
2022-07-26T20:49:25.462Z,19.70
2022-07-26T20:51:53.400Z,19.60
2022-07-26T20:54:21.537Z,19.90
2022-07-26T20:56:53.764Z,20.20
2022-07-26T20:59:21.593Z,20.20
2022-07-26T21:01:49.699Z,19.90
2022-07-26T21:04:17.526Z,19.60
2022-07-26T21:06:45.338Z,19.10
2022-07-26T21:09:14.738Z,18.70
2022-07-26T21:11:42.762Z,18.60
2022-07-26T21:14:11.942Z,18.60
2022-07-26T21:16:39.855Z,18.70
2022-07-26T21:19:07.850Z,18.80
2022-07-26T21:21:37.124Z,19.20
2022-07-26T21:24:05.899Z,19.20
2022-07-26T21:26:33.918Z,19.20
2022-07-26T21:29:01.797Z,18.90
2022-07-26T21:31:31.133Z,19.30
2022-07-26T21:33:59.020Z,19.40
2022-07-26T21:36:27.394Z,19.80
2022-07-26T21:38:55.233Z,19.30
2022-07-26T21:41:23.115Z,19.30
2022-07-26T21:43:51.322Z,19.50
2022-07-26T21:46:19.468Z,18.90
2022-07-26T21:48:48.964Z,18.90
2022-07-26T21:51:16.918Z,18.90
2022-07-26T21:53:44.743Z,18.70
2022-07-26T21:56:12.732Z,18.60
2022-07-26T21:58:40.566Z,18.40
2022-07-26T22:01:11.116Z,18.50
2022-07-26T22:03:39.842Z,18.40
2022-07-26T22:06:09.560Z,18.90
2022-07-26T22:08:37.970Z,18.70
2022-07-26T22:11:06.355Z,18.70
2022-07-26T22:13:34.206Z,18.60
2022-07-26T22:16:02.085Z,18.40
2022-07-26T22:18:30.057Z,18.40
2022-07-26T22:20:57.927Z,18.70
2022-07-26T22:23:30.067Z,18.40
2022-07-26T22:25:58.305Z,18.20
2022-07-26T22:28:26.570Z,18.10
2022-07-26T22:30:55.102Z,17.90
2022-07-26T22:33:23.792Z,17.90
2022-07-26T22:35:51.657Z,18.20
2022-07-26T22:38:19.844Z,18.90
2022-07-26T22:40:49.063Z,18.90
2022-07-26T22:43:17.224Z,19.30
2022-07-26T22:45:45.122Z,19.20
2022-07-26T22:48:13.138Z,19.00
2022-07-26T22:50:41.369Z,18.40
2022-07-26T22:53:09.189Z,18.00
2022-07-26T22:55:37.114Z,18.30
2022-07-26T22:58:06.258Z,18.50
2022-07-26T23:00:34.164Z,18.50
2022-07-26T23:03:02.191Z,18.10
2022-07-26T23:05:45.377Z,17.80
2022-07-26T23:08:44.423Z,18.30
2022-07-26T23:11:02.730Z,17.90
2022-07-26T23:13:32.051Z,17.70
2022-07-26T23:16:01.298Z,17.60
2022-07-26T23:18:29.544Z,17.50
2022-07-26T23:20:57.390Z,17.40
2022-07-26T23:23:29.647Z,17.60
2022-07-26T23:25:59.141Z,18.30
2022-07-26T23:28:36.838Z,18.60
2022-07-26T23:31:08.175Z,18.20
2022-07-26T23:33:52.059Z,18.10
2022-07-26T23:36:21.591Z,17.80
2022-07-26T23:38:49.439Z,18.20
2022-07-26T23:41:17.306Z,17.90
2022-07-26T23:43:45.337Z,17.60
2022-07-26T23:46:14.540Z,17.60
2022-07-26T23:48:42.663Z,17.90
2022-07-26T23:51:10.493Z,17.90
2022-07-26T23:53:38.371Z,17.90
2022-07-26T23:56:06.622Z,18.40
2022-07-26T23:58:34.541Z,18.40
